createdAt,value
2023-05-22T00:01:56.815Z,67.55
2023-05-22T00:04:30.096Z,69.32
2023-05-22T00:06:58.071Z,68.86
2023-05-22T00:09:26.340Z,68.35
2023-05-22T00:11:54.194Z,68.28
2023-05-22T00:14:21.944Z,68.47
2023-05-22T00:16:50.402Z,68.60
2023-05-22T00:19:19.012Z,69.08
2023-05-22T00:21:46.982Z,69.33
2023-05-22T00:24:14.908Z,69.13
2023-05-22T00:26:42.646Z,68.80
2023-05-22T00:29:11.012Z,69.55
2023-05-22T00:31:38.697Z,69.60
2023-05-22T00:34:06.490Z,69.29
2023-05-22T00:36:34.349Z,70.65
2023-05-22T00:39:02.132Z,70.37
2023-05-22T00:41:34.009Z,70.27
2023-05-22T00:44:02.783Z,69.58
2023-05-22T00:46:31.383Z,69.78
2023-05-22T00:48:59.191Z,70.81
2023-05-22T00:51:26.995Z,69.79
2023-05-22T00:53:54.814Z,70.40
2023-05-22T00:56:22.761Z,70.56
2023-05-22T00:58:50.883Z,70.46
2023-05-22T01:01:18.988Z,69.11
2023-05-22T01:03:47.161Z,69.93
2023-05-22T01:06:18.328Z,69.91
2023-05-22T01:08:46.172Z,70.45
2023-05-22T01:11:22.385Z,70.29
2023-05-22T01:14:10.842Z,70.53
2023-05-22T01:16:42.000Z,70.22
2023-05-22T01:19:47.688Z,70.71
2023-05-22T01:22:51.149Z,70.08
2023-05-22T01:25:36.072Z,70.64
2023-05-22T01:28:21.954Z,70.99
2023-05-22T01:30:58.618Z,71.35
2023-05-22T01:33:28.933Z,70.61
2023-05-22T01:36:00.274Z,69.91
2023-05-22T01:38:29.196Z,70.26
2023-05-22T01:40:58.350Z,70.40
2023-05-22T01:43:26.029Z,70.04
2023-05-22T01:45:53.986Z,70.31
2023-05-22T01:48:21.671Z,70.71
2023-05-22T01:50:52.267Z,70.35
2023-05-22T01:53:28.742Z,71.18
2023-05-22T01:56:21.108Z,70.69
2023-05-22T01:58:56.492Z,71.24
2023-05-22T02:01:28.999Z,70.72
2023-05-22T02:03:58.179Z,70.57
2023-05-22T02:06:28.873Z,71.11
2023-05-22T02:08:57.578Z,71.34
2023-05-22T02:11:28.551Z,71.69
2023-05-22T02:13:57.475Z,71.81
2023-05-22T02:16:25.484Z,71.79
2023-05-22T02:19:05.928Z,71.48
2023-05-22T02:21:34.922Z,72.08
2023-05-22T02:24:03.480Z,71.90
2023-05-22T02:26:31.299Z,71.65
2023-05-22T02:28:59.121Z,71.95
2023-05-22T02:31:27.064Z,72.43
2023-05-22T02:33:54.951Z,70.72
2023-05-22T02:36:23.066Z,71.27
2023-05-22T02:38:50.902Z,72.07
2023-05-22T02:41:18.766Z,73.08
2023-05-22T02:43:46.458Z,71.94
2023-05-22T02:46:14.375Z,73.09
2023-05-22T02:48:42.122Z,73.46
2023-05-22T02:51:09.909Z,73.44
2023-05-22T02:53:40.232Z,72.95
2023-05-22T02:56:10.710Z,73.32
2023-05-22T02:58:39.145Z,72.67
2023-05-22T03:01:06.845Z,72.56
2023-05-22T03:03:34.964Z,72.50
2023-05-22T03:06:04.265Z,73.30
2023-05-22T03:08:32.328Z,73.46
2023-05-22T03:11:00.643Z,72.75
2023-05-22T03:13:28.402Z,73.91
2023-05-22T03:15:56.144Z,72.92
2023-05-22T03:18:25.961Z,73.69
2023-05-22T03:20:55.062Z,73.24
2023-05-22T03:23:22.788Z,73.60
2023-05-22T03:25:51.332Z,74.00
2023-05-22T03:28:19.053Z,74.09
2023-05-22T03:30:47.579Z,73.91
2023-05-22T03:33:15.457Z,73.84
2023-05-22T03:35:44.691Z,73.85
2023-05-22T03:38:12.414Z,74.20
2023-05-22T03:40:40.276Z,74.18
2023-05-22T03:43:08.196Z,73.68
2023-05-22T03:45:35.934Z,73.91
2023-05-22T03:48:03.967Z,74.11
2023-05-22T03:50:31.778Z,73.00
2023-05-22T03:52:59.482Z,73.63
2023-05-22T03:55:27.225Z,73.52
2023-05-22T03:57:55.005Z,73.56
2023-05-22T04:00:22.872Z,73.79
2023-05-22T04:02:51.389Z,72.66
2023-05-22T04:05:19.286Z,72.04
2023-05-22T04:07:47.045Z,72.19
2023-05-22T04:10:14.726Z,72.43
2023-05-22T04:12:42.480Z,72.83
2023-05-22T04:15:10.255Z,72.40
2023-05-22T04:17:40.950Z,72.26
2023-05-22T04:20:09.734Z,72.63
2023-05-22T04:22:38.635Z,72.53
2023-05-22T04:25:06.784Z,72.87
2023-05-22T04:27:35.721Z,72.21
2023-05-22T04:30:04.067Z,71.92
2023-05-22T04:32:31.815Z,72.10
2023-05-22T04:35:00.837Z,71.56
2023-05-22T04:37:32.009Z,72.20
2023-05-22T04:40:06.081Z,71.80
2023-05-22T04:42:37.458Z,71.70
2023-05-22T04:45:05.861Z,71.60
2023-05-22T04:47:33.598Z,71.26
2023-05-22T04:50:02.565Z,71.08
2023-05-22T04:52:30.407Z,70.73
2023-05-22T04:55:00.687Z,70.81
2023-05-22T04:57:29.840Z,70.76
2023-05-22T04:59:58.243Z,70.72
2023-05-22T05:02:26.065Z,70.58
2023-05-22T05:04:54.077Z,70.68
2023-05-22T05:07:21.795Z,70.48
2023-05-22T05:09:49.711Z,70.39
2023-05-22T05:12:17.635Z,70.35
2023-05-22T05:14:45.634Z,69.83
2023-05-22T05:17:13.915Z,70.11
2023-05-22T05:19:41.726Z,69.90
2023-05-22T05:22:09.523Z,69.98
2023-05-22T05:24:37.324Z,69.78
2023-05-22T05:27:05.298Z,69.88
2023-05-22T05:29:33.100Z,69.52
2023-05-22T05:32:00.912Z,69.34
2023-05-22T05:34:28.664Z,69.47
2023-05-22T05:36:58.052Z,69.28
2023-05-22T05:39:25.867Z,69.36
2023-05-22T05:41:53.587Z,69.49
2023-05-22T05:44:21.669Z,69.35
2023-05-22T05:46:49.485Z,69.15
2023-05-22T05:49:17.209Z,69.29
2023-05-22T05:51:44.940Z,69.33
2023-05-22T05:54:12.789Z,69.24
2023-05-22T05:56:40.784Z,68.97
2023-05-22T05:59:09.860Z,68.74
2023-05-22T06:01:39.470Z,68.62
2023-05-22T06:04:09.099Z,68.45
2023-05-22T06:06:36.860Z,68.47
2023-05-22T06:09:07.993Z,68.32
2023-05-22T06:11:36.666Z,68.27
2023-05-22T06:14:07.425Z,67.98
2023-05-22T06:16:35.244Z,67.37
2023-05-22T06:19:04.642Z,67.10
2023-05-22T06:21:32.471Z,67.64
2023-05-22T06:24:00.296Z,67.36
2023-05-22T06:26:28.191Z,67.16
2023-05-22T06:28:55.991Z,66.93
2023-05-22T06:31:24.634Z,64.68
2023-05-22T06:33:52.596Z,65.38
2023-05-22T06:36:20.518Z,66.32
2023-05-22T06:38:49.751Z,65.52
2023-05-22T06:41:17.637Z,65.71
2023-05-22T06:43:45.426Z,65.16
2023-05-22T06:46:13.508Z,64.92
2023-05-22T06:48:42.007Z,63.73
2023-05-22T06:51:11.669Z,64.37
2023-05-22T06:53:39.677Z,64.33
2023-05-22T06:56:07.540Z,64.44
2023-05-22T06:58:35.295Z,64.07
2023-05-22T07:01:03.246Z,63.61
2023-05-22T07:03:31.069Z,62.94
2023-05-22T07:05:59.762Z,63.06
2023-05-22T07:08:30.337Z,61.22
2023-05-22T07:10:58.434Z,62.36
2023-05-22T07:13:26.141Z,62.01
2023-05-22T07:15:54.409Z,62.35
2023-05-22T07:18:22.233Z,61.93
2023-05-22T07:20:50.037Z,61.77
2023-05-22T07:23:17.769Z,61.21
2023-05-22T07:25:45.519Z,60.59
2023-05-22T07:28:13.242Z,60.57
2023-05-22T07:30:41.607Z,59.44
2023-05-22T07:33:09.526Z,60.12
2023-05-22T07:35:37.767Z,58.45
2023-05-22T07:38:05.555Z,58.77
2023-05-22T07:40:33.246Z,58.62
2023-05-22T07:43:01.006Z,58.08
2023-05-22T07:45:28.739Z,57.18
2023-05-22T07:47:59.106Z,57.16
2023-05-22T07:50:27.092Z,57.21
2023-05-22T07:52:54.813Z,56.96
2023-05-22T07:55:22.774Z,54.91
2023-05-22T07:57:51.476Z,54.59
2023-05-22T08:00:19.949Z,54.56
2023-05-22T08:02:47.980Z,52.85
2023-05-22T08:05:16.032Z,53.40
2023-05-22T08:07:43.891Z,52.49
2023-05-22T08:10:15.999Z,50.11
2023-05-22T08:12:43.762Z,52.03
2023-05-22T08:15:12.068Z,52.11
2023-05-22T08:17:40.143Z,51.97
2023-05-22T08:20:09.534Z,51.78
2023-05-22T08:22:39.245Z,51.91
2023-05-22T08:25:07.211Z,46.95
2023-05-22T08:27:35.144Z,49.68
2023-05-22T08:30:04.763Z,47.79
2023-05-22T08:32:32.674Z,48.53
2023-05-22T08:35:01.661Z,46.66
2023-05-22T08:37:29.467Z,46.10
2023-05-22T08:39:57.142Z,46.41
2023-05-22T08:42:25.273Z,43.39
2023-05-22T08:44:55.468Z,46.48
2023-05-22T08:47:26.090Z,44.66
2023-05-22T08:49:54.987Z,45.24
2023-05-22T08:52:26.403Z,45.85
2023-05-22T08:54:56.093Z,45.10
2023-05-22T08:57:25.000Z,43.37
2023-05-22T08:59:53.156Z,43.30
2023-05-22T09:02:21.904Z,43.44
2023-05-22T09:04:49.802Z,44.08
2023-05-22T09:07:17.514Z,41.99
2023-05-22T09:09:45.202Z,41.40
2023-05-22T09:12:13.874Z,40.87
2023-05-22T09:14:43.068Z,41.82
2023-05-22T09:17:15.700Z,42.64
2023-05-22T09:19:47.317Z,42.99
2023-05-22T09:22:15.148Z,42.61
2023-05-22T09:24:47.194Z,41.51
2023-05-22T09:27:14.920Z,42.41
2023-05-22T09:29:51.049Z,42.47
2023-05-22T09:32:20.113Z,41.41
2023-05-22T09:34:47.969Z,42.00
2023-05-22T09:37:16.763Z,41.46
2023-05-22T09:39:46.556Z,42.23
2023-05-22T09:42:18.110Z,41.86
2023-05-22T09:44:49.859Z,40.34
2023-05-22T09:47:17.898Z,41.62
2023-05-22T09:49:46.383Z,41.02
2023-05-22T09:52:15.759Z,40.47
2023-05-22T09:54:54.003Z,39.40
2023-05-22T09:57:24.104Z,39.78
2023-05-22T09:59:54.998Z,40.33
2023-05-22T10:02:24.321Z,40.54
2023-05-22T10:04:53.522Z,38.26
2023-05-22T10:07:37.582Z,38.90
2023-05-22T10:10:11.453Z,39.75
2023-05-22T10:12:44.614Z,39.41
2023-05-22T10:15:13.019Z,39.42
2023-05-22T10:17:42.142Z,39.25
2023-05-22T10:20:11.740Z,39.06
2023-05-22T10:22:39.510Z,39.20
2023-05-22T10:25:10.443Z,38.63
2023-05-22T10:27:40.535Z,38.79
2023-05-22T10:30:20.347Z,37.23
2023-05-22T10:32:55.167Z,38.14
2023-05-22T10:35:52.916Z,38.65
2023-05-22T10:38:44.198Z,38.79
2023-05-22T10:41:12.668Z,39.13
2023-05-22T10:43:48.343Z,38.99
2023-05-22T10:46:16.643Z,38.98
2023-05-22T10:48:46.802Z,38.90
2023-05-22T10:51:18.189Z,38.92
2023-05-22T10:53:53.234Z,38.46
2023-05-22T10:56:24.434Z,38.54
2023-05-22T10:58:58.062Z,37.74
2023-05-22T11:01:26.736Z,38.61
2023-05-22T11:03:55.983Z,38.65
2023-05-22T11:06:31.798Z,38.78
2023-05-22T11:09:00.010Z,37.75
2023-05-22T11:11:28.183Z,37.98
2023-05-22T11:14:03.506Z,38.43
2023-05-22T11:16:38.076Z,38.67
2023-05-22T11:19:22.658Z,38.73
2023-05-22T11:21:51.529Z,38.23
2023-05-22T11:24:19.550Z,38.66
2023-05-22T11:27:02.769Z,38.69
2023-05-22T11:29:31.146Z,38.62
2023-05-22T11:31:59.927Z,38.68
2023-05-22T11:34:28.083Z,38.72
2023-05-22T11:37:00.011Z,38.61
2023-05-22T11:39:28.198Z,38.69
2023-05-22T11:41:56.190Z,38.35
2023-05-22T11:44:24.053Z,38.27
2023-05-22T11:46:52.640Z,38.32
2023-05-22T11:49:24.100Z,38.33
2023-05-22T11:51:51.963Z,37.39
2023-05-22T11:54:19.899Z,38.11
2023-05-22T11:56:48.376Z,36.81
2023-05-22T11:59:16.598Z,36.29
2023-05-22T12:01:44.436Z,36.14
2023-05-22T12:04:12.397Z,36.91
2023-05-22T12:06:40.313Z,35.03
2023-05-22T12:09:09.123Z,36.01
2023-05-22T12:11:37.529Z,36.37
2023-05-22T12:14:05.779Z,36.24
2023-05-22T12:16:36.868Z,36.48
2023-05-22T12:19:09.560Z,36.31
2023-05-22T12:21:42.277Z,36.43
2023-05-22T12:24:10.729Z,36.61
2023-05-22T12:26:38.423Z,36.50
2023-05-22T12:29:06.397Z,36.27
2023-05-22T12:31:39.003Z,36.09
2023-05-22T12:34:08.597Z,36.09
2023-05-22T12:36:42.246Z,35.00
2023-05-22T12:39:11.996Z,35.74
2023-05-22T12:41:40.163Z,35.39
2023-05-22T12:44:08.284Z,34.91
2023-05-22T12:46:36.427Z,34.42
2023-05-22T12:49:04.296Z,34.72
2023-05-22T12:51:32.934Z,35.83
2023-05-22T12:54:02.101Z,36.05
2023-05-22T12:56:30.825Z,34.74
2023-05-22T12:58:58.955Z,35.59
2023-05-22T13:01:27.176Z,35.55
2023-05-22T13:03:54.975Z,35.27
2023-05-22T13:06:22.729Z,35.12
2023-05-22T13:08:51.147Z,35.12
2023-05-22T13:11:20.157Z,35.24
2023-05-22T13:13:47.888Z,35.10
2023-05-22T13:16:15.620Z,35.11
2023-05-22T13:18:44.186Z,34.30
2023-05-22T13:21:13.603Z,34.65
2023-05-22T13:23:42.296Z,34.53
2023-05-22T13:26:10.060Z,34.30
2023-05-22T13:28:37.806Z,34.59
2023-05-22T13:31:05.637Z,34.65
2023-05-22T13:33:33.384Z,34.81
2023-05-22T13:36:01.190Z,34.73
2023-05-22T13:38:28.946Z,34.98
2023-05-22T13:40:56.671Z,34.06
2023-05-22T13:43:24.374Z,35.51
2023-05-22T13:45:52.151Z,33.91
2023-05-22T13:48:20.185Z,34.37
2023-05-22T13:50:47.924Z,34.52
2023-05-22T13:53:20.982Z,34.57
2023-05-22T13:55:48.894Z,34.13
2023-05-22T13:58:16.740Z,34.59
2023-05-22T14:00:44.678Z,34.47
2023-05-22T14:03:17.501Z,34.76
2023-05-22T14:05:45.785Z,34.59
2023-05-22T14:08:13.616Z,34.55
2023-05-22T14:10:42.271Z,34.17
2023-05-22T14:13:10.050Z,34.01
2023-05-22T14:15:38.067Z,34.46
2023-05-22T14:18:06.039Z,34.03
2023-05-22T14:20:34.238Z,34.06
2023-05-22T14:23:02.019Z,33.67
2023-05-22T14:25:29.857Z,34.30
2023-05-22T14:27:57.886Z,34.09
2023-05-22T14:30:25.855Z,33.93
2023-05-22T14:32:53.649Z,34.05
2023-05-22T14:35:21.570Z,33.07
2023-05-22T14:37:49.539Z,32.61
2023-05-22T14:40:17.390Z,33.10
2023-05-22T14:42:45.801Z,33.19
2023-05-22T14:45:13.632Z,33.71
2023-05-22T14:47:43.104Z,32.96
2023-05-22T14:50:19.008Z,32.87
2023-05-22T14:52:49.426Z,33.27
2023-05-22T14:55:17.762Z,33.14
2023-05-22T14:57:45.982Z,33.35
2023-05-22T15:00:15.279Z,33.20
2023-05-22T15:02:43.220Z,33.02
2023-05-22T15:05:11.736Z,32.53
2023-05-22T15:07:44.459Z,32.63
2023-05-22T15:10:13.234Z,33.03
2023-05-22T15:12:41.223Z,32.71
2023-05-22T15:15:09.178Z,33.63
2023-05-22T15:17:36.889Z,33.11
2023-05-22T15:20:05.675Z,32.42
2023-05-22T15:22:33.401Z,32.77
2023-05-22T15:25:09.694Z,32.33
2023-05-22T15:27:39.057Z,33.36
2023-05-22T15:30:09.809Z,33.50
2023-05-22T15:32:38.066Z,33.78
2023-05-22T15:35:07.148Z,33.36
2023-05-22T15:37:36.540Z,33.19
2023-05-22T15:40:06.065Z,33.62
2023-05-22T15:42:33.775Z,33.13
2023-05-22T15:45:01.940Z,33.70
2023-05-22T15:47:29.974Z,33.48
2023-05-22T15:49:57.819Z,32.45
2023-05-22T15:52:25.718Z,32.50
2023-05-22T15:54:54.969Z,32.41
2023-05-22T15:57:23.984Z,32.79
2023-05-22T15:59:51.951Z,32.78
2023-05-22T16:02:19.739Z,33.00
2023-05-22T16:04:49.238Z,32.40
2023-05-22T16:07:18.995Z,31.77
2023-05-22T16:09:47.507Z,32.46
2023-05-22T16:12:15.494Z,32.71
2023-05-22T16:14:43.336Z,32.65
2023-05-22T16:17:11.255Z,32.32
2023-05-22T16:19:39.006Z,32.55
2023-05-22T16:22:06.826Z,31.83
2023-05-22T16:24:34.555Z,32.38
2023-05-22T16:27:02.492Z,32.46
2023-05-22T16:29:32.312Z,32.58
2023-05-22T16:32:00.197Z,32.45
2023-05-22T16:34:29.719Z,32.42
2023-05-22T16:36:57.477Z,32.68
2023-05-22T16:39:27.071Z,32.89
2023-05-22T16:41:54.901Z,32.64
2023-05-22T16:44:22.644Z,32.77
2023-05-22T16:46:50.633Z,33.05
2023-05-22T16:49:18.394Z,33.07
2023-05-22T16:51:46.159Z,33.06
2023-05-22T16:54:13.912Z,32.79
2023-05-22T16:56:42.694Z,33.42
2023-05-22T16:59:10.567Z,33.28
2023-05-22T17:01:38.420Z,33.21
2023-05-22T17:04:06.264Z,33.45
2023-05-22T17:06:35.552Z,33.24
2023-05-22T17:09:03.575Z,33.46
2023-05-22T17:11:31.317Z,33.62
2023-05-22T17:13:59.184Z,33.77
2023-05-22T17:16:26.949Z,33.90
2023-05-22T17:18:55.182Z,34.09
2023-05-22T17:21:24.350Z,34.29
2023-05-22T17:23:52.289Z,34.23
2023-05-22T17:26:20.198Z,34.22
2023-05-22T17:28:47.879Z,34.21
2023-05-22T17:31:16.493Z,34.54
2023-05-22T17:33:44.352Z,34.58
2023-05-22T17:36:12.347Z,34.77
2023-05-22T17:38:40.213Z,34.90
2023-05-22T17:41:08.499Z,34.84
2023-05-22T17:43:38.298Z,35.06
2023-05-22T17:46:06.574Z,35.65
2023-05-22T17:48:34.720Z,35.57
2023-05-22T17:51:03.629Z,35.82
2023-05-22T17:53:34.905Z,36.22
2023-05-22T17:56:04.695Z,36.33
2023-05-22T17:58:32.875Z,36.44
2023-05-22T18:01:00.668Z,37.31
2023-05-22T18:03:28.818Z,37.35
2023-05-22T18:05:56.986Z,37.46
2023-05-22T18:08:25.025Z,37.76
2023-05-22T18:10:52.739Z,37.91
2023-05-22T18:13:20.502Z,38.42
2023-05-22T18:15:50.136Z,38.46
2023-05-22T18:18:18.164Z,39.03
2023-05-22T18:20:46.404Z,39.39
2023-05-22T18:23:14.314Z,39.20
2023-05-22T18:25:42.175Z,39.91
2023-05-22T18:28:10.165Z,40.10
2023-05-22T18:30:38.112Z,40.06
2023-05-22T18:33:06.184Z,40.28
2023-05-22T18:35:34.008Z,40.57
2023-05-22T18:38:01.996Z,40.78
2023-05-22T18:40:29.709Z,41.42
2023-05-22T18:42:57.422Z,42.21
2023-05-22T18:45:25.118Z,41.93
2023-05-22T18:47:53.587Z,42.17
2023-05-22T18:50:23.409Z,42.42
2023-05-22T18:52:51.575Z,42.37
2023-05-22T18:55:19.415Z,43.30
2023-05-22T18:57:47.156Z,43.67
2023-05-22T19:00:14.967Z,44.66
2023-05-22T19:02:42.759Z,44.88
2023-05-22T19:05:10.852Z,45.07
2023-05-22T19:07:38.842Z,45.29
2023-05-22T19:10:08.303Z,45.41
2023-05-22T19:12:36.170Z,47.88
2023-05-22T19:15:05.477Z,46.25
2023-05-22T19:17:33.380Z,46.09
2023-05-22T19:20:03.476Z,47.26
2023-05-22T19:22:32.009Z,47.72
2023-05-22T19:24:59.851Z,48.06
2023-05-22T19:27:27.678Z,48.88
2023-05-22T19:29:56.723Z,49.08
2023-05-22T19:32:24.421Z,48.39
2023-05-22T19:34:52.137Z,49.03
2023-05-22T19:37:19.849Z,48.84
2023-05-22T19:39:47.648Z,49.38
2023-05-22T19:42:15.395Z,50.19
2023-05-22T19:44:43.156Z,50.98
2023-05-22T19:47:11.067Z,49.80
2023-05-22T19:49:38.765Z,50.89
2023-05-22T19:52:06.816Z,51.30
2023-05-22T19:54:35.804Z,51.66
2023-05-22T19:57:03.639Z,50.99
2023-05-22T19:59:31.384Z,51.38
2023-05-22T20:01:59.478Z,51.48
2023-05-22T20:04:27.428Z,52.27
2023-05-22T20:06:55.380Z,52.97
2023-05-22T20:09:23.105Z,53.06
2023-05-22T20:11:50.907Z,53.05
2023-05-22T20:14:20.943Z,55.07
2023-05-22T20:16:49.005Z,54.56
2023-05-22T20:19:17.672Z,54.90
2023-05-22T20:21:49.017Z,54.34
2023-05-22T20:24:21.127Z,53.87
2023-05-22T20:26:49.085Z,54.03
2023-05-22T20:29:17.687Z,54.80
2023-05-22T20:31:46.095Z,54.68
2023-05-22T20:34:14.074Z,54.31
2023-05-22T20:36:42.743Z,54.92
2023-05-22T20:39:12.318Z,55.97
2023-05-22T20:41:40.057Z,57.13
2023-05-22T20:44:08.178Z,56.93
2023-05-22T20:46:35.941Z,56.86
2023-05-22T20:49:05.108Z,55.99
2023-05-22T20:51:33.637Z,57.93
2023-05-22T20:54:01.532Z,57.52
2023-05-22T20:56:30.187Z,57.97
2023-05-22T20:58:58.012Z,58.46
2023-05-22T21:01:25.820Z,57.81
2023-05-22T21:03:56.564Z,57.39
2023-05-22T21:06:24.534Z,57.82
2023-05-22T21:08:54.291Z,57.93
2023-05-22T21:11:22.221Z,58.96
2023-05-22T21:13:49.966Z,58.35
2023-05-22T21:16:17.671Z,58.10
2023-05-22T21:18:45.852Z,58.60
2023-05-22T21:21:20.428Z,58.49
2023-05-22T21:23:49.285Z,59.97
2023-05-22T21:26:17.117Z,60.56
2023-05-22T21:28:45.053Z,61.22
2023-05-22T21:31:12.848Z,60.94
2023-05-22T21:33:42.728Z,61.61
2023-05-22T21:36:10.477Z,61.38
2023-05-22T21:38:38.357Z,62.23
2023-05-22T21:41:06.227Z,60.70
2023-05-22T21:43:34.037Z,61.76
2023-05-22T21:46:01.817Z,62.53
2023-05-22T21:48:29.626Z,62.03
2023-05-22T21:50:58.144Z,62.98
2023-05-22T21:53:26.133Z,62.35
2023-05-22T21:55:53.924Z,61.92
2023-05-22T21:58:21.889Z,61.53
2023-05-22T22:00:49.615Z,62.33
2023-05-22T22:03:18.292Z,62.66
2023-05-22T22:05:46.360Z,61.10
2023-05-22T22:08:14.099Z,61.27
2023-05-22T22:10:42.237Z,62.52
2023-05-22T22:13:10.273Z,63.06
2023-05-22T22:15:37.999Z,63.80
2023-05-22T22:18:05.886Z,63.15
2023-05-22T22:20:44.454Z,64.11
2023-05-22T22:23:13.218Z,64.07
2023-05-22T22:25:40.969Z,64.26
2023-05-22T22:28:08.705Z,63.84
2023-05-22T22:30:36.445Z,63.42
2023-05-22T22:33:04.301Z,65.52
2023-05-22T22:35:32.133Z,64.92
2023-05-22T22:37:59.861Z,65.50
2023-05-22T22:40:27.948Z,64.07
2023-05-22T22:42:55.665Z,64.65
2023-05-22T22:45:23.467Z,65.60
2023-05-22T22:47:53.203Z,64.76
2023-05-22T22:50:21.447Z,64.83
2023-05-22T22:52:49.447Z,64.44
2023-05-22T22:55:17.490Z,64.55
2023-05-22T22:57:50.022Z,64.57
2023-05-22T23:00:19.276Z,64.94
2023-05-22T23:02:47.361Z,65.29
2023-05-22T23:05:20.034Z,64.69
2023-05-22T23:07:48.807Z,66.00
2023-05-22T23:10:16.617Z,66.94
2023-05-22T23:12:44.367Z,65.82
2023-05-22T23:15:13.759Z,65.68
2023-05-22T23:17:42.180Z,65.86
2023-05-22T23:20:11.270Z,67.00
2023-05-22T23:22:39.122Z,68.31
2023-05-22T23:25:07.411Z,67.41
2023-05-22T23:27:36.545Z,67.70
2023-05-22T23:30:05.467Z,66.16
2023-05-22T23:32:33.239Z,66.42
2023-05-22T23:35:01.009Z,66.87
2023-05-22T23:37:28.886Z,67.05
2023-05-22T23:39:56.564Z,66.19
2023-05-22T23:42:24.283Z,66.15
2023-05-22T23:44:51.981Z,67.66
2023-05-22T23:47:20.044Z,67.90
2023-05-22T23:49:47.727Z,66.79
2023-05-22T23:52:15.482Z,66.15
2023-05-22T23:54:43.206Z,68.77
2023-05-22T23:57:11.063Z,67.68
2023-05-22T23:59:39.231Z,67.30
